Time;durP1;ratioP1;P1;durP2;ratioP2;P2;SDS_P1;SDS_P2;PMS_P1;PMS_P2;Temp;Humidity;BMP_temperature;BMP_pressure;BME280_temperature;BME280_humidity;BME280_pressure;Samples;Min_cycle;Max_cycle;Signal;HPM_P1;HPM_P2
2023/12/14 00:00:08;;;;;;;21.70;10.48;;;;;;;;;;7374764;19;20543;-79
2023/12/14 00:02:33;;;;;;;28.73;10.60;;;;;;;;;;7373915;19;20006;-80
2023/12/14 00:04:58;;;;;;;22.65;10.70;;;;;;;;;;7375373;19;20022;-80
2023/12/14 00:07:24;;;;;;;20.30;10.10;;;;;;;;;;7375009;19;20006;-79
2023/12/14 00:09:49;;;;;;;23.20;10.73;;;;;;;;;;7378674;19;20016;-79
2023/12/14 00:12:14;;;;;;;31.35;12.02;;;;;;;;;;7393432;19;19994;-80
2023/12/14 00:14:39;;;;;;;22.92;11.25;;;;;;;;;;7371763;19;20031;-79
2023/12/14 00:17:05;;;;;;;27.48;12.18;;;;;;;;;;7372139;19;19995;-79
2023/12/14 00:19:30;;;;;;;24.08;11.32;;;;;;;;;;7373256;19;20022;-79
2023/12/14 00:21:55;;;;;;;27.77;12.30;;;;;;;;;;7376156;19;20007;-79
2023/12/14 00:24:21;;;;;;;26.35;11.57;;;;;;;;;;7412388;19;19997;-79
2023/12/14 00:26:46;;;;;;;18.63;9.98;;;;;;;;;;7400518;19;20033;-79
2023/12/14 00:29:11;;;;;;;21.90;9.88;;;;;;;;;;7401626;19;19994;-80
2023/12/14 00:31:37;;;;;;;18.95;9.60;;;;;;;;;;7390891;19;20008;-80
2023/12/14 00:34:02;;;;;;;22.20;9.23;;;;;;;;;;7374620;19;20360;-80
2023/12/14 00:36:28;;;;;;;18.45;9.43;;;;;;;;;;7398122;19;19994;-80
2023/12/14 00:38:55;;;;;;;18.73;9.85;;;;;;;;;;7370895;19;20050;-80
2023/12/14 00:41:21;;;;;;;20.58;9.55;;;;;;;;;;7374469;19;20200;-80
2023/12/14 00:43:46;;;;;;;19.25;9.15;;;;;;;;;;7372526;19;20002;-80
2023/12/14 00:46:11;;;;;;;23.02;9.95;;;;;;;;;;7370838;19;20484;-80
2023/12/14 00:48:37;;;;;;;28.73;11.15;;;;;;;;;;7393909;19;20013;-80
2023/12/14 00:51:02;;;;;;;21.38;10.85;;;;;;;;;;7370861;19;20006;-80
2023/12/14 00:53:28;;;;;;;18.85;9.23;;;;;;;;;;7369127;19;20011;-80
2023/12/14 00:55:53;;;;;;;17.52;9.35;;;;;;;;;;7368470;19;20078;-80
2023/12/14 00:58:18;;;;;;;19.17;9.60;;;;;;;;;;7371183;19;20006;-80
2023/12/14 01:00:43;;;;;;;20.13;10.73;;;;;;;;;;7392578;19;20026;-80
2023/12/14 01:03:09;;;;;;;19.17;9.80;;;;;;;;;;7370159;19;20033;-80
2023/12/14 01:05:34;;;;;;;20.33;10.18;;;;;;;;;;7372278;19;20015;-81
2023/12/14 01:07:59;;;;;;;17.23;10.43;;;;;;;;;;7374042;19;20070;-80
2023/12/14 01:10:25;;;;;;;25.80;9.02;;;;;;;;;;7372462;19;20017;-80
2023/12/14 01:12:50;;;;;;;15.93;8.23;;;;;;;;;;7371505;19;19995;-80
2023/12/14 01:15:15;;;;;;;16.27;8.82;;;;;;;;;;7394328;19;20007;-80
2023/12/14 01:17:41;;;;;;;17.85;8.32;;;;;;;;;;7371753;19;20012;-80
2023/12/14 01:20:07;;;;;;;23.50;8.88;;;;;;;;;;7372042;19;20019;-80
2023/12/14 01:22:33;;;;;;;17.98;8.80;;;;;;;;;;7371357;19;20007;-80
2023/12/14 01:24:59;;;;;;;16.98;8.57;;;;;;;;;;7372319;19;19998;-80
2023/12/14 01:27:24;;;;;;;18.50;8.48;;;;;;;;;;7391610;19;20665;-80
2023/12/14 01:29:50;;;;;;;17.27;8.32;;;;;;;;;;7371206;19;20006;-80
2023/12/14 01:32:15;;;;;;;21.10;9.68;;;;;;;;;;7371756;19;20006;-80
2023/12/14 01:34:41;;;;;;;24.60;11.52;;;;;;;;;;7371758;19;20017;-80
2023/12/14 01:37:06;;;;;;;27.55;11.70;;;;;;;;;;7371699;19;20017;-80
2023/12/14 01:39:32;;;;;;;25.25;10.85;;;;;;;;;;7393323;19;20002;-80
2023/12/14 01:41:58;;;;;;;21.23;10.88;;;;;;;;;;7369733;19;20033;-80
2023/12/14 01:44:23;;;;;;;21.00;10.82;;;;;;;;;;7369005;19;20021;-80
2023/12/14 01:46:48;;;;;;;24.40;10.68;;;;;;;;;;7370500;19;20044;-80
2023/12/14 01:49:14;;;;;;;25.65;8.82;;;;;;;;;;7371119;19;20026;-80
2023/12/14 01:51:39;;;;;;;20.00;9.15;;;;;;;;;;7391766;19;20014;-80
2023/12/14 01:54:04;;;;;;;22.33;9.20;;;;;;;;;;7368688;19;20021;-80
2023/12/14 01:56:30;;;;;;;19.63;9.75;;;;;;;;;;7376938;19;20014;-80
2023/12/14 01:58:55;;;;;;;26.60;10.45;;;;;;;;;;7374565;19;20030;-80
2023/12/14 02:01:25;;;;;;;27.17;10.35;;;;;;;;;;7372642;19;20032;-80
2023/12/14 02:03:52;;;;;;;23.65;12.65;;;;;;;;;;7368441;19;20085;-80
2023/12/14 02:06:18;;;;;;;24.90;12.82;;;;;;;;;;7390975;19;20027;-80
2023/12/14 02:08:43;;;;;;;24.25;11.68;;;;;;;;;;7376464;19;20014;-80
2023/12/14 02:11:08;;;;;;;23.95;11.85;;;;;;;;;;7378357;19;20149;-80
2023/12/14 02:13:34;;;;;;;26.30;12.18;;;;;;;;;;7375814;19;20011;-80
2023/12/14 02:15:59;;;;;;;26.15;13.20;;;;;;;;;;7378680;19;20038;-81
2023/12/14 02:18:25;;;;;;;26.33;12.85;;;;;;;;;;7411289;19;19995;-80
2023/12/14 02:20:50;;;;;;;24.27;12.18;;;;;;;;;;7405982;19;20006;-80
2023/12/14 02:23:15;;;;;;;25.75;12.10;;;;;;;;;;7403125;19;20010;-80
2023/12/14 02:25:41;;;;;;;23.38;12.45;;;;;;;;;;7402976;19;19995;-81
2023/12/14 02:28:06;;;;;;;24.08;12.20;;;;;;;;;;7401428;19;20006;-80
2023/12/14 02:30:31;;;;;;;22.25;11.93;;;;;;;;;;7410737;19;20010;-80
2023/12/14 02:32:57;;;;;;;27.75;12.57;;;;;;;;;;7379487;19;20051;-80
2023/12/14 02:35:22;;;;;;;25.50;12.07;;;;;;;;;;7379585;19;20013;-80
2023/12/14 02:37:48;;;;;;;26.30;11.50;;;;;;;;;;7378435;19;20010;-80
2023/12/14 02:40:13;;;;;;;23.98;11.70;;;;;;;;;;7377507;19;20014;-79
2023/12/14 02:42:38;;;;;;;21.77;11.35;;;;;;;;;;7398693;19;19999;-80
2023/12/14 02:45:04;;;;;;;24.70;12.35;;;;;;;;;;7375784;19;20078;-80
2023/12/14 02:47:30;;;;;;;25.55;12.60;;;;;;;;;;7375563;19;20006;-80
2023/12/14 02:49:56;;;;;;;27.63;13.10;;;;;;;;;;7375398;19;20011;-80
2023/12/14 02:52:21;;;;;;;26.17;12.70;;;;;;;;;;7375145;19;19998;-80
2023/12/14 02:54:47;;;;;;;27.65;13.95;;;;;;;;;;7397679;19;19991;-79
2023/12/14 02:57:12;;;;;;;28.80;13.10;;;;;;;;;;7375702;19;20461;-80
2023/12/14 02:59:37;;;;;;;23.35;12.80;;;;;;;;;;7374315;19;20010;-80
2023/12/14 03:02:03;;;;;;;29.30;13.25;;;;;;;;;;7376174;19;20007;-80
2023/12/14 03:04:28;;;;;;;26.92;12.52;;;;;;;;;;7374779;19;20010;-80
2023/12/14 03:06:53;;;;;;;25.73;12.65;;;;;;;;;;7376002;19;20006;-80
2023/12/14 03:09:19;;;;;;;20.90;11.57;;;;;;;;;;7397468;19;20354;-79
2023/12/14 03:11:45;;;;;;;23.60;11.38;;;;;;;;;;7375624;19;20006;-79
2023/12/14 03:14:10;;;;;;;22.25;12.10;;;;;;;;;;7375117;19;20006;-79
2023/12/14 03:16:36;;;;;;;26.17;12.05;;;;;;;;;;7375770;19;20011;-80
2023/12/14 03:19:01;;;;;;;21.30;11.82;;;;;;;;;;7376622;19;20018;-80
2023/12/14 03:21:27;;;;;;;22.42;12.07;;;;;;;;;;7398880;19;20020;-80
2023/12/14 03:23:52;;;;;;;26.17;11.85;;;;;;;;;;7372949;19;19999;-80
2023/12/14 03:26:18;;;;;;;33.25;12.73;;;;;;;;;;7374770;19;20027;-80
2023/12/14 03:28:43;;;;;;;23.90;12.60;;;;;;;;;;7375995;19;20011;-80
2023/12/14 03:31:12;;;;;;;24.25;12.23;;;;;;;;;;7375303;19;20007;-80
2023/12/14 03:33:38;;;;;;;21.35;11.27;;;;;;;;;;7394924;19;20006;-81
2023/12/14 03:36:04;;;;;;;25.45;11.65;;;;;;;;;;7376816;19;20026;-80
2023/12/14 03:38:29;;;;;;;22.30;11.90;;;;;;;;;;7392210;19;20010;-80
2023/12/14 03:40:55;;;;;;;20.88;12.18;;;;;;;;;;7401996;19;20005;-80
2023/12/14 03:43:20;;;;;;;19.05;10.98;;;;;;;;;;7398152;19;20002;-80
2023/12/14 03:45:45;;;;;;;19.55;11.20;;;;;;;;;;7403126;19;20066;-80
2023/12/14 03:48:11;;;;;;;18.05;10.52;;;;;;;;;;7375370;19;20369;-80
2023/12/14 03:50:36;;;;;;;19.25;9.93;;;;;;;;;;7375690;19;20034;-80
2023/12/14 03:53:01;;;;;;;17.75;10.50;;;;;;;;;;7372262;19;20019;-80
2023/12/14 03:55:27;;;;;;;17.05;10.15;;;;;;;;;;7374373;19;20493;-80
2023/12/14 03:57:52;;;;;;;18.40;10.73;;;;;;;;;;7373259;19;20440;-80
2023/12/14 04:00:27;;;;;;;16.13;9.80;;;;;;;;;;7395113;19;20017;-80
2023/12/14 04:02:52;;;;;;;17.85;10.32;;;;;;;;;;7372228;19;20160;-80
2023/12/14 04:05:18;;;;;;;23.08;10.88;;;;;;;;;;7373427;19;20013;-80
2023/12/14 04:07:43;;;;;;;22.48;10.80;;;;;;;;;;7370594;19;20044;-80
2023/12/14 04:10:09;;;;;;;18.23;10.00;;;;;;;;;;7373694;19;20041;-80
2023/12/14 04:12:35;;;;;;;17.48;10.25;;;;;;;;;;7393581;19;20006;-80
2023/12/14 04:15:02;;;;;;;16.88;10.10;;;;;;;;;;7371390;19;20129;-80
2023/12/14 04:17:27;;;;;;;21.63;10.25;;;;;;;;;;7373876;19;20066;-80
2023/12/14 04:19:52;;;;;;;20.65;9.98;;;;;;;;;;7380510;19;20010;-80
2023/12/14 04:22:18;;;;;;;19.55;10.55;;;;;;;;;;7370933;19;20119;-80
2023/12/14 04:24:43;;;;;;;19.13;11.00;;;;;;;;;;7395866;19;20002;-80
2023/12/14 04:27:08;;;;;;;21.20;11.75;;;;;;;;;;7374813;19;20014;-81
2023/12/14 04:29:33;;;;;;;21.48;10.68;;;;;;;;;;7373534;19;20010;-80
2023/12/14 04:31:59;;;;;;;21.88;10.95;;;;;;;;;;7376698;19;20114;-80
2023/12/14 04:34:24;;;;;;;21.30;10.98;;;;;;;;;;7374234;19;20040;-80
2023/12/14 04:36:49;;;;;;;25.60;12.15;;;;;;;;;;7376227;19;19998;-80
2023/12/14 04:39:16;;;;;;;23.00;12.07;;;;;;;;;;7403317;19;20007;-80
2023/12/14 04:41:41;;;;;;;26.63;12.80;;;;;;;;;;7371602;19;20219;-80
2023/12/14 04:44:07;;;;;;;27.02;12.05;;;;;;;;;;7372060;19;20002;-80
2023/12/14 04:46:33;;;;;;;24.63;12.05;;;;;;;;;;7372444;19;20014;-80
2023/12/14 04:48:58;;;;;;;28.55;12.02;;;;;;;;;;7372851;19;20007;-80
2023/12/14 04:51:23;;;;;;;30.95;12.35;;;;;;;;;;7392331;19;20023;-80
2023/12/14 04:53:49;;;;;;;24.67;11.65;;;;;;;;;;7371453;19;20070;-80
2023/12/14 04:56:14;;;;;;;26.75;11.20;;;;;;;;;;7370838;19;20014;-80
2023/12/14 04:58:40;;;;;;;30.45;11.40;;;;;;;;;;7372745;19;20010;-80
2023/12/14 05:01:06;;;;;;;26.67;12.05;;;;;;;;;;7369946;19;20002;-80
2023/12/14 05:03:32;;;;;;;31.00;12.23;;;;;;;;;;7390065;19;20005;-80
2023/12/14 05:05:58;;;;;;;30.35;12.65;;;;;;;;;;7367412;19;20445;-80
2023/12/14 05:08:24;;;;;;;32.97;11.75;;;;;;;;;;7371399;19;20006;-80
2023/12/14 05:10:49;;;;;;;32.17;12.00;;;;;;;;;;7373071;19;20002;-79
2023/12/14 05:13:14;;;;;;;29.60;11.65;;;;;;;;;;7374639;19;20013;-80
2023/12/14 05:15:40;;;;;;;26.67;11.40;;;;;;;;;;7398412;19;20012;-80
2023/12/14 05:18:05;;;;;;;31.17;12.77;;;;;;;;;;7384865;19;19995;-80
2023/12/14 05:20:30;;;;;;;42.72;18.63;;;;;;;;;;7398955;19;20038;-80
2023/12/14 05:22:56;;;;;;;36.72;18.75;;;;;;;;;;7398564;19;20030;-79
2023/12/14 05:25:21;;;;;;;40.70;19.35;;;;;;;;;;7397577;19;20050;-79
2023/12/14 05:27:46;;;;;;;40.90;16.73;;;;;;;;;;7398801;19;20028;-80
2023/12/14 05:30:12;;;;;;;32.72;14.35;;;;;;;;;;7378665;19;20017;-80
2023/12/14 05:32:37;;;;;;;40.35;17.05;;;;;;;;;;7394202;19;20007;-79
2023/12/14 05:35:03;;;;;;;58.55;32.00;;;;;;;;;;7398474;19;20011;-81
2023/12/14 05:37:28;;;;;;;42.35;20.67;;;;;;;;;;7392946;19;20026;-80
2023/12/14 05:39:54;;;;;;;36.95;17.63;;;;;;;;;;7385649;19;20010;-79
2023/12/14 05:42:19;;;;;;;34.65;16.92;;;;;;;;;;7417709;19;20035;-80
2023/12/14 05:44:45;;;;;;;39.88;26.08;;;;;;;;;;7376263;19;20014;-80
2023/12/14 05:47:10;;;;;;;33.47;18.30;;;;;;;;;;7374527;19;20030;-79
2023/12/14 05:49:37;;;;;;;35.58;15.10;;;;;;;;;;7375733;19;20011;-77
2023/12/14 05:52:02;;;;;;;36.58;17.98;;;;;;;;;;7367765;19;20019;-77
2023/12/14 05:54:28;;;;;;;30.92;15.30;;;;;;;;;;7392829;19;19994;-78
2023/12/14 05:56:53;;;;;;;27.13;12.85;;;;;;;;;;7380633;19;19998;-79
2023/12/14 05:59:18;;;;;;;31.27;15.52;;;;;;;;;;7384563;19;20027;-78
2023/12/14 06:01:44;;;;;;;26.40;13.43;;;;;;;;;;7375843;19;20021;-78
2023/12/14 06:04:09;;;;;;;30.05;13.30;;;;;;;;;;7375806;19;20026;-78
2023/12/14 06:06:34;;;;;;;23.08;11.35;;;;;;;;;;7395626;19;20102;-78
2023/12/14 06:09:00;;;;;;;28.05;12.93;;;;;;;;;;7373980;19;20006;-78
2023/12/14 06:11:25;;;;;;;27.35;18.65;;;;;;;;;;7370666;19;20007;-73
2023/12/14 06:13:50;;;;;;;25.33;13.70;;;;;;;;;;7366630;19;20006;-73
2023/12/14 06:16:16;;;;;;;23.10;14.48;;;;;;;;;;7368183;19;20025;-73
2023/12/14 06:18:43;;;;;;;27.00;13.40;;;;;;;;;;7394069;19;20006;-78
2023/12/14 06:21:08;;;;;;;25.25;12.55;;;;;;;;;;7365194;19;20078;-78
2023/12/14 06:23:35;;;;;;;25.40;12.45;;;;;;;;;;7368120;19;20014;-78
2023/12/14 06:26:03;;;;;;;24.98;12.43;;;;;;;;;;7371592;19;20382;-77
2023/12/14 06:28:30;;;;;;;23.58;12.27;;;;;;;;;;7371487;19;20010;-77
2023/12/14 06:30:56;;;;;;;25.58;11.02;;;;;;;;;;7372332;19;19999;-78
2023/12/14 06:33:21;;;;;;;25.30;12.00;;;;;;;;;;7393068;19;20533;-77
2023/12/14 06:35:47;;;;;;;23.95;12.65;;;;;;;;;;7369177;19;20003;-77
2023/12/14 06:38:12;;;;;;;29.15;14.32;;;;;;;;;;7373124;19;19999;-78
2023/12/14 06:40:38;;;;;;;25.50;12.68;;;;;;;;;;7370834;19;20010;-77
2023/12/14 06:43:06;;;;;;;27.98;13.38;;;;;;;;;;7370363;19;20014;-78
2023/12/14 06:45:31;;;;;;;23.35;13.20;;;;;;;;;;7391097;19;19990;-78
2023/12/14 06:47:56;;;;;;;32.72;14.23;;;;;;;;;;7367130;19;20036;-78
2023/12/14 06:50:22;;;;;;;27.73;12.95;;;;;;;;;;7369027;19;20030;-77
2023/12/14 06:52:47;;;;;;;27.38;13.05;;;;;;;;;;7357268;19;20084;-77
2023/12/14 06:55:14;;;;;;;29.60;13.98;;;;;;;;;;7370991;19;20017;-78
2023/12/14 06:57:42;;;;;;;25.67;13.30;;;;;;;;;;7389951;19;20010;-77
2023/12/14 07:00:08;;;;;;;25.83;13.18;;;;;;;;;;7367998;19;20037;-78
2023/12/14 07:02:33;;;;;;;23.13;12.63;;;;;;;;;;7366782;19;20010;-78
2023/12/14 07:04:59;;;;;;;25.00;12.85;;;;;;;;;;7367016;19;20021;-77
2023/12/14 07:07:24;;;;;;;24.73;12.52;;;;;;;;;;7367152;19;20014;-77
2023/12/14 07:09:50;;;;;;;23.98;13.23;;;;;;;;;;7369018;19;20013;-79
2023/12/14 07:12:15;;;;;;;25.17;13.25;;;;;;;;;;7389766;19;20365;-78
2023/12/14 07:14:40;;;;;;;27.67;13.88;;;;;;;;;;7369513;19;20086;-78
2023/12/14 07:17:06;;;;;;;29.33;12.98;;;;;;;;;;7368829;19;20036;-78
2023/12/14 07:19:31;;;;;;;30.92;14.43;;;;;;;;;;7371400;19;20019;-77
2023/12/14 07:21:57;;;;;;;32.53;15.43;;;;;;;;;;7357970;19;20027;-78
2023/12/14 07:24:22;;;;;;;29.85;15.15;;;;;;;;;;7383774;19;19995;-79
2023/12/14 07:26:48;;;;;;;34.60;15.50;;;;;;;;;;7365128;19;19998;-79
2023/12/14 07:29:13;;;;;;;30.85;14.48;;;;;;;;;;7366721;19;19998;-78
2023/12/14 07:31:38;;;;;;;33.05;15.30;;;;;;;;;;7367575;19;20476;-79
2023/12/14 07:34:04;;;;;;;30.50;14.52;;;;;;;;;;7223738;19;2748540;-78
2023/12/14 07:36:29;;;;;;;27.50;13.98;;;;;;;;;;7392336;19;20000;-78
2023/12/14 07:38:55;;;;;;;32.72;14.65;;;;;;;;;;7370049;19;20006;-77
2023/12/14 07:41:23;;;;;;;31.40;15.07;;;;;;;;;;7362266;19;20491;-76
2023/12/14 07:43:48;;;;;;;32.70;15.60;;;;;;;;;;7372865;19;20587;-77
2023/12/14 07:46:14;;;;;;;35.58;16.38;;;;;;;;;;7370083;19;20010;-77
2023/12/14 07:48:39;;;;;;;27.92;15.23;;;;;;;;;;7401459;19;19986;-78
2023/12/14 07:51:05;;;;;;;29.30;15.02;;;;;;;;;;7376284;19;20102;-77
2023/12/14 07:53:30;;;;;;;28.15;14.07;;;;;;;;;;7378046;19;20003;-77
2023/12/14 07:55:55;;;;;;;39.53;17.50;;;;;;;;;;7386229;19;20009;-77
2023/12/14 07:58:21;;;;;;;40.17;18.23;;;;;;;;;;7377150;19;20023;-77
2023/12/14 08:00:46;;;;;;;45.42;20.13;;;;;;;;;;7397302;19;20034;-78
2023/12/14 08:03:12;;;;;;;48.65;20.35;;;;;;;;;;7369734;19;20352;-77
2023/12/14 08:05:37;;;;;;;53.53;21.98;;;;;;;;;;7367572;19;20017;-77
2023/12/14 08:08:02;;;;;;;60.35;23.80;;;;;;;;;;7369085;19;20006;-76
2023/12/14 08:10:28;;;;;;;57.97;23.80;;;;;;;;;;7368014;19;20006;-77
2023/12/14 08:12:53;;;;;;;50.25;22.73;;;;;;;;;;7364386;19;20019;-77
2023/12/14 08:15:18;;;;;;;56.78;24.33;;;;;;;;;;7388208;19;20047;-77
2023/12/14 08:17:44;;;;;;;61.90;25.05;;;;;;;;;;7365253;19;20006;-77
2023/12/14 08:20:11;;;;;;;65.22;25.08;;;;;;;;;;7368671;19;20444;-79
2023/12/14 08:22:36;;;;;;;56.88;23.27;;;;;;;;;;7363753;19;20002;-76
2023/12/14 08:25:03;;;;;;;57.30;23.50;;;;;;;;;;7364478;19;20005;-77
2023/12/14 08:27:29;;;;;;;52.03;20.90;;;;;;;;;;7385513;19;20040;-77
2023/12/14 08:29:54;;;;;;;47.03;20.40;;;;;;;;;;7366463;19;20014;-77
2023/12/14 08:32:19;;;;;;;49.05;19.95;;;;;;;;;;7364799;19;20002;-79
2023/12/14 08:34:45;;;;;;;38.72;17.13;;;;;;;;;;7366996;19;20078;-78
2023/12/14 08:37:10;;;;;;;37.42;17.27;;;;;;;;;;7370453;19;20362;-78
2023/12/14 08:39:35;;;;;;;39.10;17.27;;;;;;;;;;7391769;19;20771;-77
2023/12/14 08:42:00;;;;;;;40.28;18.60;;;;;;;;;;7369097;19;20006;-77
2023/12/14 08:44:26;;;;;;;45.00;18.30;;;;;;;;;;7379865;19;20017;-77
2023/12/14 08:46:51;;;;;;;41.47;19.38;;;;;;;;;;7386805;19;20006;-77
2023/12/14 08:49:16;;;;;;;40.78;18.90;;;;;;;;;;7393715;19;20010;-78
2023/12/14 08:51:42;;;;;;;38.40;17.88;;;;;;;;;;7411532;19;20036;-76
2023/12/14 08:54:07;;;;;;;33.90;16.92;;;;;;;;;;7376123;19;19999;-76
2023/12/14 08:56:33;;;;;;;34.05;16.58;;;;;;;;;;7368131;19;20377;-77
2023/12/14 08:59:00;;;;;;;32.70;16.85;;;;;;;;;;7364586;19;20014;-77
2023/12/14 09:01:25;;;;;;;26.85;15.13;;;;;;;;;;7367387;19;20009;-77
2023/12/14 09:03:51;;;;;;;26.70;13.30;;;;;;;;;;7368999;19;20007;-78
2023/12/14 09:06:17;;;;;;;21.38;12.02;;;;;;;;;;7392018;19;20002;-77
2023/12/14 09:08:44;;;;;;;25.73;13.75;;;;;;;;;;7367364;19;20335;-77
2023/12/14 09:11:09;;;;;;;27.27;14.65;;;;;;;;;;7370135;19;20002;-77
2023/12/14 09:13:34;;;;;;;25.40;14.45;;;;;;;;;;7365888;19;20022;-77
2023/12/14 09:16:00;;;;;;;31.42;15.13;;;;;;;;;;7365338;19;20503;-77
2023/12/14 09:18:25;;;;;;;27.73;14.35;;;;;;;;;;7389743;19;20002;-77
2023/12/14 09:20:50;;;;;;;27.38;13.80;;;;;;;;;;7368964;19;20010;-76
2023/12/14 09:23:16;;;;;;;25.50;12.35;;;;;;;;;;7368412;19;20474;-77
2023/12/14 09:25:42;;;;;;;24.40;11.68;;;;;;;;;;7368411;19;20007;-76
2023/12/14 09:28:07;;;;;;;22.05;10.90;;;;;;;;;;7371700;19;20025;-77
2023/12/14 09:30:32;;;;;;;19.20;10.80;;;;;;;;;;7410743;19;19995;-77
2023/12/14 09:32:58;;;;;;;18.77;10.25;;;;;;;;;;7382271;19;20026;-76
2023/12/14 09:35:23;;;;;;;15.80;9.07;;;;;;;;;;7379824;19;20039;-76
2023/12/14 09:37:49;;;;;;;16.00;9.15;;;;;;;;;;7377807;19;20007;-76
2023/12/14 09:40:16;;;;;;;21.10;10.38;;;;;;;;;;7377044;19;20038;-76
2023/12/14 09:42:42;;;;;;;21.25;9.60;;;;;;;;;;7406620;19;19991;-75
2023/12/14 09:45:11;;;;;;;18.23;9.52;;;;;;;;;;7380413;19;20009;-76
2023/12/14 09:47:37;;;;;;;15.93;9.13;;;;;;;;;;7390148;19;20014;-77
2023/12/14 09:50:04;;;;;;;16.83;9.25;;;;;;;;;;7388681;19;20059;-76
2023/12/14 09:52:29;;;;;;;16.20;8.75;;;;;;;;;;7386873;19;20022;-76
2023/12/14 09:54:54;;;;;;;15.70;9.38;;;;;;;;;;7389333;19;19999;-78
2023/12/14 09:57:20;;;;;;;16.77;8.38;;;;;;;;;;7402585;19;20006;-77
2023/12/14 09:59:55;;;;;;;15.75;9.07;;;;;;;;;;7379492;19;20002;-77
2023/12/14 10:02:26;;;;;;;16.50;8.25;;;;;;;;;;7385107;19;20620;-77
2023/12/14 10:04:51;;;;;;;14.07;8.50;;;;;;;;;;7382486;19;20109;-76
2023/12/14 10:07:18;;;;;;;14.57;8.05;;;;;;;;;;7373703;19;20252;-77
2023/12/14 10:09:43;;;;;;;13.45;7.30;;;;;;;;;;7394150;19;20002;-76
2023/12/14 10:12:09;;;;;;;13.90;7.22;;;;;;;;;;7380381;19;19999;-77
2023/12/14 10:14:36;;;;;;;16.00;8.48;;;;;;;;;;7372350;19;20038;-76
2023/12/14 10:17:18;;;;;;;17.77;8.00;;;;;;;;;;7376078;19;19998;-77
2023/12/14 10:19:44;;;;;;;15.15;8.07;;;;;;;;;;7369896;19;20022;-76
2023/12/14 10:22:10;;;;;;;13.88;8.25;;;;;;;;;;7365684;19;20008;-77
2023/12/14 10:24:35;;;;;;;12.07;7.53;;;;;;;;;;7385405;19;20041;-76
2023/12/14 10:27:07;;;;;;;14.15;6.97;;;;;;;;;;7363284;19;20077;-76
2023/12/14 10:29:34;;;;;;;14.75;7.65;;;;;;;;;;7369952;19;19998;-76
2023/12/14 10:32:02;;;;;;;14.57;7.43;;;;;;;;;;7370828;19;20813;-76
2023/12/14 10:34:27;;;;;;;20.50;12.10;;;;;;;;;;7368573;19;20006;-75
2023/12/14 10:36:53;;;;;;;46.75;27.50;;;;;;;;;;7370820;19;20009;-76
2023/12/14 10:39:19;;;;;;;19.45;10.30;;;;;;;;;;7391278;19;20002;-75
2023/12/14 10:41:48;;;;;;;15.88;8.82;;;;;;;;;;7369460;19;20038;-76
2023/12/14 10:44:15;;;;;;;13.93;8.20;;;;;;;;;;7367771;19;20050;-75
2023/12/14 10:46:42;;;;;;;11.35;6.25;;;;;;;;;;7370089;19;20106;-76
2023/12/14 10:49:09;;;;;;;11.98;6.60;;;;;;;;;;7369871;19;20014;-76
2023/12/14 10:51:37;;;;;;;10.10;5.97;;;;;;;;;;7393620;19;20014;-76
2023/12/14 10:54:03;;;;;;;12.32;6.80;;;;;;;;;;7368672;19;20002;-77
2023/12/14 10:56:29;;;;;;;10.40;6.80;;;;;;;;;;7369057;19;20019;-76
2023/12/14 10:59:00;;;;;;;14.27;6.13;;;;;;;;;;7372216;19;20006;-76
2023/12/14 11:01:25;;;;;;;10.38;6.20;;;;;;;;;;7372806;19;20009;-77
2023/12/14 11:03:55;;;;;;;11.25;6.47;;;;;;;;;;7375073;19;19999;-77
2023/12/14 11:06:28;;;;;;;9.95;6.18;;;;;;;;;;7391123;19;20447;-76
2023/12/14 11:09:06;;;;;;;10.90;6.28;;;;;;;;;;7367694;19;20003;-76
2023/12/14 11:11:39;;;;;;;9.95;6.03;;;;;;;;;;7368435;19;19999;-77
2023/12/14 11:14:10;;;;;;;11.48;6.20;;;;;;;;;;7371527;19;20621;-75
2023/12/14 11:16:37;;;;;;;10.75;6.10;;;;;;;;;;7372801;19;20007;-75
2023/12/14 11:19:21;;;;;;;11.65;6.40;;;;;;;;;;7371572;19;20009;-77
2023/12/14 11:21:53;;;;;;;13.35;6.88;;;;;;;;;;7390629;19;20014;-76
2023/12/14 11:24:18;;;;;;;11.30;6.40;;;;;;;;;;7365593;19;20696;-75
2023/12/14 11:26:43;;;;;;;11.32;6.68;;;;;;;;;;7365436;19;20007;-76
2023/12/14 11:29:09;;;;;;;12.55;7.43;;;;;;;;;;7367321;19;20010;-76
2023/12/14 11:31:35;;;;;;;11.25;6.97;;;;;;;;;;7368116;19;20024;-76
2023/12/14 11:34:03;;;;;;;10.77;6.60;;;;;;;;;;7365027;19;20005;-75
2023/12/14 11:36:28;;;;;;;13.13;6.75;;;;;;;;;;7387696;19;20779;-79
2023/12/14 11:38:54;;;;;;;10.82;6.45;;;;;;;;;;7367896;19;20003;-76
2023/12/14 11:41:21;;;;;;;11.27;6.47;;;;;;;;;;7355213;19;20010;-76
2023/12/14 11:43:46;;;;;;;10.65;6.80;;;;;;;;;;7367085;19;20353;-75
2023/12/14 11:46:12;;;;;;;12.52;7.13;;;;;;;;;;7369313;19;20018;-76
2023/12/14 11:48:37;;;;;;;13.60;7.45;;;;;;;;;;7390598;19;20023;-76
2023/12/14 11:51:03;;;;;;;11.95;7.20;;;;;;;;;;7368702;19;20033;-76
2023/12/14 11:53:30;;;;;;;15.05;8.60;;;;;;;;;;7368450;19;20033;-76
2023/12/14 11:55:55;;;;;;;15.07;9.05;;;;;;;;;;7368984;19;20010;-77
2023/12/14 11:58:20;;;;;;;14.82;9.20;;;;;;;;;;7371615;19;20017;-75
2023/12/14 12:00:47;;;;;;;16.25;10.30;;;;;;;;;;7395833;19;19999;-77
2023/12/14 12:03:21;;;;;;;15.95;9.32;;;;;;;;;;7372678;19;20002;-76
2023/12/14 12:05:51;;;;;;;16.25;9.55;;;;;;;;;;7372022;19;20007;-76
2023/12/14 12:08:19;;;;;;;18.88;10.73;;;;;;;;;;7372460;19;20353;-76
2023/12/14 12:10:46;;;;;;;19.13;10.70;;;;;;;;;;7372456;19;20014;-75
2023/12/14 12:13:16;;;;;;;16.90;10.35;;;;;;;;;;7371125;19;20058;-75
2023/12/14 12:15:42;;;;;;;17.77;9.83;;;;;;;;;;7390325;19;20110;-74
2023/12/14 12:18:09;;;;;;;16.58;9.80;;;;;;;;;;7373884;19;20014;-77
2023/12/14 12:20:35;;;;;;;14.70;7.70;;;;;;;;;;7373777;19;20081;-75
2023/12/14 12:23:02;;;;;;;14.10;8.88;;;;;;;;;;7373700;19;20023;-74
2023/12/14 12:25:28;;;;;;;14.50;8.52;;;;;;;;;;7367153;19;20461;-76
2023/12/14 12:27:55;;;;;;;15.55;8.75;;;;;;;;;;7364462;19;20006;-76
2023/12/14 12:30:21;;;;;;;12.77;7.88;;;;;;;;;;7386652;19;19999;-74
2023/12/14 12:32:47;;;;;;;12.35;6.85;;;;;;;;;;7364038;19;20066;-75
2023/12/14 12:35:13;;;;;;;12.98;7.82;;;;;;;;;;7364965;19;20580;-75
2023/12/14 12:37:39;;;;;;;11.40;7.07;;;;;;;;;;7364543;19;20007;-75
2023/12/14 12:40:05;;;;;;;10.27;5.65;;;;;;;;;;7364383;19;20016;-75
2023/12/14 12:42:31;;;;;;;10.55;6.20;;;;;;;;;;7384871;19;20499;-75
2023/12/14 12:44:56;;;;;;;10.52;5.72;;;;;;;;;;7362544;19;20094;-74
2023/12/14 12:47:21;;;;;;;9.52;5.53;;;;;;;;;;7363433;19;20471;-75
2023/12/14 12:49:47;;;;;;;10.80;5.95;;;;;;;;;;7366002;19;20033;-74
2023/12/14 12:52:12;;;;;;;15.07;8.70;;;;;;;;;;7366284;19;20432;-74
2023/12/14 12:54:37;;;;;;;15.90;9.35;;;;;;;;;;7387842;19;20002;-75
2023/12/14 12:57:03;;;;;;;9.73;5.72;;;;;;;;;;7363610;19;20099;-75
2023/12/14 12:59:28;;;;;;;10.80;5.72;;;;;;;;;;7363394;19;20041;-75
2023/12/14 13:01:54;;;;;;;9.57;5.60;;;;;;;;;;7363194;19;20011;-75
2023/12/14 13:04:21;;;;;;;10.27;5.82;;;;;;;;;;7362158;19;20018;-74
2023/12/14 13:06:50;;;;;;;9.50;5.75;;;;;;;;;;7383690;19;20026;-74
2023/12/14 13:09:21;;;;;;;10.05;5.40;;;;;;;;;;7363642;19;20003;-74
2023/12/14 13:11:46;;;;;;;;;;;;;;;;;;7363613;19;20103;-75
2023/12/14 13:14:12;;;;;;;10.63;5.55;;;;;;;;;;7363958;19;19999;-74
2023/12/14 13:16:38;;;;;;;10.25;5.95;;;;;;;;;;7362151;19;19998;-76
2023/12/14 13:19:04;;;;;;;9.60;5.65;;;;;;;;;;7364068;19;20563;-74
2023/12/14 13:21:30;;;;;;;10.50;6.15;;;;;;;;;;7384661;19;20103;-74
2023/12/14 13:23:57;;;;;;;14.00;6.90;;;;;;;;;;7351337;19;19995;-75
2023/12/14 13:26:23;;;;;;;11.35;6.88;;;;;;;;;;7360902;19;20046;-74
2023/12/14 13:28:48;;;;;;;12.05;6.18;;;;;;;;;;7363360;19;20171;-75
2023/12/14 13:31:14;;;;;;;15.60;6.45;;;;;;;;;;7363379;19;20006;-75
2023/12/14 13:33:39;;;;;;;11.20;6.00;;;;;;;;;;7381948;19;20001;-75
2023/12/14 13:36:05;;;;;;;11.07;6.18;;;;;;;;;;7362009;19;20009;-75
2023/12/14 13:38:33;;;;;;;10.30;5.95;;;;;;;;;;7361332;19;20013;-74
2023/12/14 13:40:59;;;;;;;9.25;5.18;;;;;;;;;;7362506;19;19994;-74
2023/12/14 13:43:24;;;;;;;11.05;5.88;;;;;;;;;;7366194;19;20013;-76
2023/12/14 13:45:52;;;;;;;9.50;5.65;;;;;;;;;;7384395;19;20283;-76
2023/12/14 13:48:18;;;;;;;9.98;5.55;;;;;;;;;;7383438;19;20020;-74
2023/12/14 13:50:44;;;;;;;10.60;5.68;;;;;;;;;;7360998;19;20002;-74
2023/12/14 13:53:10;;;;;;;10.50;4.90;;;;;;;;;;7361338;19;20036;-76
2023/12/14 13:55:35;;;;;;;19.85;10.70;;;;;;;;;;7359625;19;20015;-75
2023/12/14 13:58:01;;;;;;;17.70;11.30;;;;;;;;;;7361749;19;19995;-75
2023/12/14 14:00:26;;;;;;;7.88;4.70;;;;;;;;;;7382722;19;20006;-74
2023/12/14 14:02:52;;;;;;;9.70;5.28;;;;;;;;;;7361652;19;20053;-74
2023/12/14 14:05:17;;;;;;;9.73;4.72;;;;;;;;;;7369038;19;20034;-76
2023/12/14 14:07:42;;;;;;;8.77;4.97;;;;;;;;;;7366492;19;20007;-74
2023/12/14 14:10:08;;;;;;;9.30;5.30;;;;;;;;;;7362127;19;19998;-75
2023/12/14 14:12:33;;;;;;;10.52;5.15;;;;;;;;;;7389141;19;20036;-74
2023/12/14 14:14:59;;;;;;;8.95;4.47;;;;;;;;;;7367648;19;20015;-74